KLAW/LAW METAR and TAF weather

Enter ICAO airport designator
Station Type Date Time Source
KLAW METAR 2019/06/27 07:53 UTC NOAA

KLAW 270753Z AUTO 16006KT 10SM CLR 24/22 A3011 RMK AO2 SLP182 T02390217


Station Type Date Time Source
KLAW Decoded METAR 2019/06/27 07:53 UTC NOAA

LAWTON - FORT SILL REGIONAL, OK, United States (KLAW) 34-34N 98-25W 337M
Jun 27, 2019 - 03:53 AM EDT / 2019.06.27 0753 UTC
Wind: from the SSE (160 degrees) at 7 MPH (6 KT):0
Visibility: 10 mile(s):0
Sky conditions: clear
Temperature: 75.0 F (23.9 C)
Dew Point: 71.1 F (21.7 C)
Relative Humidity: 87%
Pressure (altimeter): 30.11 in. Hg (1019 hPa)
ob: KLAW 270753Z AUTO 16006KT 10SM CLR 24/22 A3011 RMK AO2 SLP182 T02390217
cycle: 8

Station Type Date Time Source
KLAW TAF 2019/06/27 06:22 UTC NOAA

TAF KLAW 270520Z 2706/2806 15009KT P6SM SCT250
FM271500 19013KT P6SM SCT040 SCT250
FM280000 16007KT P6SM SCT250

Example: see airport list